»·PEaware :: DAL655 KBUR-KSJC

DAL655 :: KBUR-KSJC

FLIGHT INFORMATION

Flight Status: Arrived
Operator:
Delta Air Lines
More flights by this operator :: More flights under this callsign
Pilot: Kevin M. (7)
Aircraft: BOEING 737-800
(B738)
More flights by this aircraft type
Origin: KBUR Bob Hope-Burbank
United States
Destination: KSJC Mineta San Jose Intl
United States
More flights between these airports :: More routes between these airports
Route: +OROSZ2 COREZ MAKRS TROXX SILCN4
File this flight plan on PilotEdge
Remarks:
Altitude:
(Current/Filed)
36,000ft
Speed:
(Current/Filed)
468kts
Departed: 03-Nov-20 05:17 PM
Arrived: 03-Nov-20 06:04 PM
Distance/Time
Traveled:
258nm/0:47
Distance/Time
To Go:
Arrived

Flight Plot

Page will automatically refresh every two minutes.

Flight plan parsing failed; only flown route is shown


Map Options




Map Legend


Flown Route
Filed Route
Departure Airport
Arrival Airport
Navaid (VOR, NDB)
Fix

Horizontal Profiles

Position Reports

Time Latitude Longitude Heading Altitude Ground
Speed
03-Nov-20 16:49 34.196820 -118.352868 180 711ft 0kts
03-Nov-20 16:50 34.196820 -118.352868 180 711ft 0kts
03-Nov-20 16:51 34.196820 -118.352868 180 711ft 0kts
03-Nov-20 16:52 34.196820 -118.352868 180 711ft 0kts
03-Nov-20 16:53 34.196820 -118.352868 180 711ft 0kts
03-Nov-20 16:54 34.196820 -118.352868 180 711ft 0kts
03-Nov-20 16:55 34.196820 -118.352868 180 711ft 0kts
03-Nov-20 16:56 34.196820 -118.352868 180 711ft 0kts
03-Nov-20 16:57 34.196820 -118.352868 180 711ft 0kts
03-Nov-20 16:58 34.196820 -118.352868 180 711ft 0kts
03-Nov-20 16:59 34.196820 -118.352868 180 711ft 0kts
03-Nov-20 17:00 34.196820 -118.352868 180 711ft 0kts
03-Nov-20 17:01 34.196820 -118.352868 180 711ft 0kts
03-Nov-20 17:02 34.196820 -118.352868 180 711ft 0kts
03-Nov-20 17:03 34.196812 -118.352868 179 711ft 0kts
03-Nov-20 17:04 34.196812 -118.352868 179 711ft 0kts
03-Nov-20 17:05 34.196812 -118.352868 179 711ft 0kts
03-Nov-20 17:06 34.196812 -118.352868 179 711ft 0kts
03-Nov-20 17:07 34.196812 -118.352868 179 711ft 0kts
03-Nov-20 17:08 34.196910 -118.352868 180 711ft 2kts
03-Nov-20 17:09 34.197198 -118.352608 271 712ft 0kts
03-Nov-20 17:10 34.197198 -118.352608 271 712ft 0kts
03-Nov-20 17:11 34.197198 -118.352608 271 712ft 0kts
03-Nov-20 17:12 34.198314 -118.355260 348 720ft 14kts
03-Nov-20 17:13 34.205616 -118.357281 345 755ft 27kts
03-Nov-20 17:14 34.210975 -118.358751 347 778ft 12kts
03-Nov-20 17:15 34.211553 -118.359079 320 781ft 4kts
03-Nov-20 17:16 34.205184 -118.358511 166 757ft 118kts
03-Nov-20 17:17 34.163307 -118.364598 218 2673ft 187kts
03-Nov-20 17:18 34.127195 -118.425512 273 4556ft 272kts
03-Nov-20 17:19 34.182367 -118.484389 330 7878ft 286kts
03-Nov-20 17:20 34.249260 -118.539216 326 10657ft 312kts
03-Nov-20 17:21 34.326435 -118.604912 326 12562ft 359kts
03-Nov-20 17:23 34.416865 -118.671950 338 13981ft 404kts
03-Nov-20 17:24 34.517606 -118.738083 330 16297ft 418kts
03-Nov-20 17:25 34.618887 -118.809884 330 18513ft 428kts
03-Nov-20 17:26 34.722952 -118.883718 329 20424ft 439kts
03-Nov-20 17:27 34.829610 -118.959539 329 22080ft 451kts
03-Nov-20 17:28 34.939340 -119.037777 330 23353ft 465kts
03-Nov-20 17:29 35.053145 -119.119431 330 24422ft 480kts
03-Nov-20 17:30 35.168199 -119.202194 330 26128ft 479kts
03-Nov-20 17:31 35.282319 -119.284325 330 27921ft 474kts
03-Nov-20 17:32 35.394150 -119.365055 330 28082ft 462kts
03-Nov-20 17:33 35.503274 -119.446898 320 28084ft 458kts
03-Nov-20 17:34 35.569515 -119.577191 284 28083ft 457kts
03-Nov-20 17:35 35.593632 -119.730182 281 28082ft 455kts
03-Nov-20 17:36 35.616569 -119.883117 280 28077ft 453kts
03-Nov-20 17:36 35.635381 -120.010181 280 28073ft 452kts
03-Nov-20 17:38 35.661349 -120.187331 280 28070ft 451kts
03-Nov-20 17:38 35.682381 -120.312891 292 28084ft 449kts
03-Nov-20 17:40 35.752424 -120.469480 302 28071ft 448kts
03-Nov-20 17:41 35.819069 -120.599007 303 28072ft 447kts
03-Nov-20 17:41 35.875417 -120.706567 303 28073ft 447kts
03-Nov-20 17:43 35.953497 -120.855166 303 28072ft 437kts
03-Nov-20 17:43 36.014246 -120.951598 315 28076ft 420kts
03-Nov-20 17:45 36.119289 -121.063827 322 26453ft 435kts
03-Nov-20 17:45 36.196206 -121.138850 321 24772ft 411kts
03-Nov-20 17:46 36.285508 -121.220215 322 22544ft 388kts
03-Nov-20 17:47 36.368965 -121.300017 320 20429ft 370kts
03-Nov-20 17:48 36.447113 -121.378694 320 18373ft 356kts
03-Nov-20 17:49 36.530260 -121.443270 338 16166ft 351kts
03-Nov-20 17:50 36.620965 -121.482194 340 14173ft 341kts
03-Nov-20 17:51 36.709875 -121.519779 340 12194ft 333kts
03-Nov-20 17:52 36.796203 -121.556373 340 10680ft 312kts
03-Nov-20 17:53 36.873618 -121.589276 340 9842ft 284kts
03-Nov-20 17:54 36.948752 -121.621285 340 8418ft 282kts
03-Nov-20 17:55 37.022634 -121.652654 340 7035ft 279kts
03-Nov-20 17:56 37.095533 -121.683667 340 5666ft 274kts
03-Nov-20 17:57 37.153602 -121.708695 336 4697ft 264kts
03-Nov-20 17:58 37.207948 -121.764007 318 3983ft 239kts
03-Nov-20 17:59 37.260218 -121.815039 323 2957ft 214kts
03-Nov-20 18:00 37.301105 -121.859764 310 1730ft 168kts
03-Nov-20 18:01 37.329672 -121.893239 319 537ft 125kts
03-Nov-20 18:02 37.358692 -121.925499 319 73ft 128kts
03-Nov-20 18:03 37.367601 -121.933652 41 73ft 0kts
03-Nov-20 18:04 37.368539 -121.932334 49 73ft 11kts
03-Nov-20 18:05 37.368681 -121.930397 133 73ft 9kts
03-Nov-20 18:06 37.368760 -121.929824 47 73ft 0kts

Navigation Log

Ident Type
Flight plan parsing failed, navigation log unavailable